Time;durP1;ratioP1;P1;durP2;ratioP2;P2;SDS_P1;SDS_P2;PMS_P1;PMS_P2;Temp;Humidity;BMP_temperature;BMP_pressure;BME280_temperature;BME280_humidity;BME280_pressure;Samples;Min_cycle;Max_cycle;Signal;HPM_P1;HPM_P2
2023/01/21 00:01:13;;;;;;;59.25;26.35;;;0.80;99.90;;;;;;5111282;27;20222;-81
2023/01/21 00:03:40;;;;;;;56.05;26.90;;;0.80;99.90;;;;;;5114067;27;20188;-81
2023/01/21 00:06:06;;;;;;;63.80;27.52;;;0.80;99.90;;;;;;5109017;27;20205;-80
2023/01/21 00:08:32;;;;;;;52.85;25.45;;;0.80;99.90;;;;;;5111181;27;20192;-82
2023/01/21 00:11:04;;;;;;;58.85;26.30;;;0.80;99.90;;;;;;5108949;27;20529;-83
2023/01/21 00:13:31;;;;;;;56.78;27.58;;;0.70;99.90;;;;;;5116573;27;20181;-79
2023/01/21 00:15:57;;;;;;;56.28;26.25;;;0.80;99.90;;;;;;5110468;27;20196;-79
2023/01/21 00:18:23;;;;;;;56.72;27.20;;;0.80;99.90;;;;;;5109838;27;20176;-81
2023/01/21 00:20:49;;;;;;;58.25;26.83;;;0.70;99.90;;;;;;5108401;27;20189;-83
2023/01/21 00:23:14;;;;;;;58.25;27.10;;;0.70;99.90;;;;;;5110986;27;20299;-77
2023/01/21 00:25:40;;;;;;;61.85;27.58;;;0.70;99.90;;;;;;5111272;27;20672;-77
2023/01/21 00:28:06;;;;;;;57.42;27.88;;;0.80;99.90;;;;;;5110303;27;20177;-81
2023/01/21 00:30:32;;;;;;;58.45;26.48;;;0.80;99.90;;;;;;5094336;27;20192;-82
2023/01/21 00:32:58;;;;;;;57.03;26.65;;;0.70;99.90;;;;;;5110660;27;21145;-82
2023/01/21 00:35:23;;;;;;;54.78;25.77;;;0.70;99.90;;;;;;5111303;27;20267;-81
2023/01/21 00:37:52;;;;;;;58.38;27.65;;;0.70;99.90;;;;;;5111103;27;20264;-79
2023/01/21 00:40:18;;;;;;;56.67;26.92;;;0.80;99.90;;;;;;5112235;27;20189;-80
2023/01/21 00:42:43;;;;;;;63.33;28.13;;;0.70;99.90;;;;;;5116651;27;20185;-80
2023/01/21 00:45:09;;;;;;;55.38;27.27;;;0.70;99.90;;;;;;5109754;27;20645;-81
2023/01/21 00:47:35;;;;;;;58.88;26.65;;;0.70;99.90;;;;;;5110848;27;20196;-79
2023/01/21 00:50:01;;;;;;;59.72;27.48;;;0.70;99.90;;;;;;5108619;27;21806;-82
2023/01/21 00:52:26;;;;;;;57.15;26.25;;;0.80;99.90;;;;;;5110634;27;20291;-79
2023/01/21 00:54:52;;;;;;;62.40;25.92;;;0.70;99.90;;;;;;5111163;27;20281;-83
2023/01/21 00:57:18;;;;;;;62.42;26.85;;;0.70;99.90;;;;;;5111262;27;20211;-81
2023/01/21 00:59:44;;;;;;;63.78;27.88;;;0.70;99.90;;;;;;5107852;27;20637;-78
2023/01/21 01:02:10;;;;;;;58.63;27.52;;;0.60;99.90;;;;;;5109936;27;20638;-79
2023/01/21 01:04:36;;;;;;;68.15;29.45;;;0.60;99.90;;;;;;5112588;27;20318;-77
2023/01/21 01:07:01;;;;;;;56.17;26.55;;;0.60;99.90;;;;;;5115569;27;20230;-78
2023/01/21 01:09:27;;;;;;;66.00;29.40;;;0.70;99.90;;;;;;5099221;27;20249;-79
2023/01/21 01:11:53;;;;;;;65.78;28.08;;;0.60;99.90;;;;;;5112282;27;20291;-82
2023/01/21 01:14:19;;;;;;;57.30;27.50;;;0.60;99.90;;;;;;5110017;27;20273;-79
2023/01/21 01:16:44;;;;;;;62.53;28.02;;;0.60;99.90;;;;;;5107769;27;20195;-78
2023/01/21 01:19:11;;;;;;;62.90;28.92;;;0.60;99.90;;;;;;5109174;27;20187;-78
2023/01/21 01:21:37;;;;;;;65.80;29.42;;;0.60;99.90;;;;;;5109342;27;20327;-81
2023/01/21 01:24:04;;;;;;;58.55;26.95;;;0.60;99.90;;;;;;5111068;27;20189;-80
2023/01/21 01:26:30;;;;;;;59.60;28.52;;;0.60;99.90;;;;;;5094415;27;20188;-82
2023/01/21 01:28:56;;;;;;;57.15;28.02;;;0.60;99.90;;;;;;5108764;27;20183;-78
2023/01/21 01:31:22;;;;;;;63.50;28.27;;;0.60;99.90;;;;;;5109508;27;20225;-80
2023/01/21 01:33:48;;;;;;;61.45;27.40;;;0.50;99.90;;;;;;5108948;27;20185;-79
2023/01/21 01:36:17;;;;;;;58.83;26.13;;;0.60;99.90;;;;;;5109958;27;20184;-78
2023/01/21 01:38:43;;;;;;;55.17;26.17;;;0.60;99.90;;;;;;5111282;27;20259;-81
2023/01/21 01:41:15;;;;;;;57.13;27.10;;;0.60;99.90;;;;;;5107427;27;20192;-82
2023/01/21 01:43:49;;;;;;;66.10;28.48;;;0.50;99.90;;;;;;5110364;27;20176;-77
2023/01/21 01:46:14;;;;;;;63.15;27.92;;;0.50;99.90;;;;;;5109457;27;20188;-82
2023/01/21 01:48:43;;;;;;;58.97;25.70;;;0.50;99.90;;;;;;5109547;27;20194;-79
2023/01/21 01:51:10;;;;;;;57.05;27.70;;;0.50;99.90;;;;;;5110372;27;20873;-82
2023/01/21 01:53:41;;;;;;;66.10;29.40;;;0.50;99.90;;;;;;5108830;27;20230;-77
2023/01/21 01:56:07;;;;;;;61.40;27.55;;;0.50;99.90;;;;;;5108974;27;20205;-79
2023/01/21 01:58:33;;;;;;;59.65;25.60;;;0.40;99.90;;;;;;5106870;27;20300;-84
2023/01/21 02:00:59;;;;;;;61.88;27.60;;;0.40;99.90;;;;;;5106772;27;20279;-79
2023/01/21 02:03:44;;;;;;;66.45;27.45;;;0.40;99.90;;;;;;5112032;27;20209;-80
2023/01/21 02:06:12;;;;;;;60.38;26.00;;;0.30;99.90;;;;;;5107550;27;20216;-83
2023/01/21 02:08:38;;;;;;;62.42;26.75;;;0.30;99.90;;;;;;5110670;27;20298;-80
2023/01/21 02:11:30;;;;;;;62.70;27.85;;;0.30;99.90;;;;;;5108112;27;20232;-79
2023/01/21 02:13:58;;;;;;;66.45;27.70;;;0.30;99.90;;;;;;5106113;27;20227;-79
2023/01/21 02:16:36;;;;;;;59.00;26.73;;;0.40;99.90;;;;;;5107941;27;20897;-83
2023/01/21 02:19:21;;;;;;;55.72;24.98;;;0.30;99.90;;;;;;5109572;27;20865;-81
2023/01/21 02:21:57;;;;;;;59.92;25.05;;;0.40;99.90;;;;;;5109380;27;20176;-79
2023/01/21 02:24:35;;;;;;;58.90;25.95;;;0.40;99.90;;;;;;5108063;28;20177;-79
2023/01/21 02:27:29;;;;;;;54.22;24.80;;;0.40;99.90;;;;;;5108329;27;20180;-79
2023/01/21 02:30:22;;;;;;;58.35;25.63;;;0.40;99.90;;;;;;5111056;28;20647;-82
2023/01/21 02:33:21;;;;;;;59.50;26.30;;;0.40;99.90;;;;;;5108452;28;20682;-80
2023/01/21 02:36:09;;;;;;;55.22;24.85;;;0.40;99.90;;;;;;5107192;28;20295;-81
2023/01/21 02:39:05;;;;;;;58.30;23.98;;;0.40;99.90;;;;;;5109165;28;20181;-80
2023/01/21 02:41:53;;;;;;;59.97;25.83;;;0.30;99.90;;;;;;5109255;27;20194;-80
2023/01/21 02:44:36;;;;;;;62.13;26.45;;;0.40;99.90;;;;;;5109375;28;20276;-80
2023/01/21 02:47:17;;;;;;;58.90;25.75;;;0.40;99.90;;;;;;5108635;28;20200;-83
2023/01/21 02:50:15;;;;;;;63.05;26.55;;;0.40;99.90;;;;;;5110014;28;20604;-81
2023/01/21 02:52:41;;;;;;;59.28;25.70;;;0.30;99.90;;;;;;5091552;28;20749;-80
2023/01/21 02:55:15;;;;;;;55.90;24.60;;;0.40;99.90;;;;;;5108490;27;20189;-78
2023/01/21 02:57:55;;;;;;;58.67;25.45;;;0.30;99.90;;;;;;5107224;28;21204;-78
2023/01/21 03:00:58;;;;;;;57.35;25.52;;;0.30;99.90;;;;;;5106128;28;20516;-79
2023/01/21 03:03:54;;;;;;;55.88;25.48;;;0.30;99.90;;;;;;5111130;28;20172;-78
2023/01/21 03:06:39;;;;;;;57.22;24.52;;;0.30;99.90;;;;;;5082551;28;20189;-78
2023/01/21 03:09:32;;;;;;;61.28;26.48;;;0.30;99.90;;;;;;5111137;28;20240;-79
2023/01/21 03:12:15;;;;;;;63.58;26.42;;;0.30;99.90;;;;;;5104617;28;20220;-80
2023/01/21 03:17:55;;;;;;;60.95;25.48;;;0.30;99.90;;;;;;5111860;28;20248;-80
2023/01/21 03:20:38;;;;;;;62.45;25.85;;;0.30;99.90;;;;;;5110089;28;20178;-82
2023/01/21 03:23:18;;;;;;;62.28;27.50;;;0.30;99.90;;;;;;5106606;28;20177;-78
2023/01/21 03:25:46;;;;;;;62.20;27.20;;;0.30;99.90;;;;;;5107048;28;20194;-79
2023/01/21 03:28:17;;;;;;;62.13;28.33;;;0.30;99.90;;;;;;5107714;27;20189;-78
2023/01/21 03:30:46;;;;;;;67.10;29.40;;;0.30;99.90;;;;;;5110214;28;20234;-78
2023/01/21 03:33:14;;;;;;;74.75;30.80;;;0.30;99.90;;;;;;5108659;28;20284;-78
2023/01/21 03:35:44;;;;;;;71.32;32.85;;;0.30;99.90;;;;;;5108337;28;20177;-80
2023/01/21 03:38:15;;;;;;;74.63;32.17;;;0.30;99.90;;;;;;5110416;27;20233;-80
2023/01/21 03:40:52;;;;;;;68.47;30.20;;;0.30;99.90;;;;;;5112225;27;20181;-79
2023/01/21 03:43:18;;;;;;;67.67;27.73;;;0.30;99.90;;;;;;5112331;27;20216;-78
2023/01/21 03:45:48;;;;;;;65.22;29.13;;;0.40;99.90;;;;;;5111959;27;20244;-82
2023/01/21 03:48:31;;;;;;;63.70;27.55;;;0.40;99.90;;;;;;5113488;27;20187;-78
2023/01/21 03:51:05;;;;;;;66.80;27.10;;;0.50;99.90;;;;;;5111648;27;20222;-80
2023/01/21 03:53:31;;;;;;;56.90;26.80;;;0.50;99.90;;;;;;5096787;27;20192;-78
2023/01/21 03:55:58;;;;;;;72.13;29.85;;;0.60;99.90;;;;;;5111924;27;20196;-79
2023/01/21 03:58:25;;;;;;;62.60;28.77;;;0.60;99.90;;;;;;5116133;27;20226;-81
2023/01/21 04:00:51;;;;;;;61.97;28.77;;;0.60;99.90;;;;;;5110163;27;20190;-80
2023/01/21 04:03:16;;;;;;;59.45;26.50;;;0.60;99.90;;;;;;5121219;27;20177;-79
2023/01/21 04:05:42;;;;;;;69.28;30.95;;;0.60;99.90;;;;;;5111438;27;20200;-81
2023/01/21 04:08:08;;;;;;;65.15;28.85;;;0.60;99.90;;;;;;5094497;27;20180;-79
2023/01/21 04:10:34;;;;;;;71.68;29.00;;;0.70;99.90;;;;;;5099045;27;20897;-81
2023/01/21 04:13:00;;;;;;;68.88;32.63;;;0.70;99.90;;;;;;5096002;27;20219;-82
2023/01/21 04:15:25;;;;;;;73.18;32.28;;;0.70;99.90;;;;;;5111254;27;20196;-78
2023/01/21 04:17:51;;;;;;;69.85;32.28;;;0.70;99.90;;;;;;5100631;27;20269;-79
2023/01/21 04:20:18;;;;;;;69.38;29.23;;;0.70;99.90;;;;;;5111436;27;20185;-80
2023/01/21 04:22:44;;;;;;;68.38;28.77;;;0.80;99.90;;;;;;5110984;27;20200;-82
2023/01/21 04:25:09;;;;;;;64.88;29.67;;;0.80;99.90;;;;;;5113077;27;20309;-83
2023/01/21 04:27:35;;;;;;;70.10;30.88;;;0.80;99.90;;;;;;5111074;27;20202;-79
2023/01/21 04:30:01;;;;;;;63.85;30.45;;;0.80;99.90;;;;;;5111643;27;20184;-82
2023/01/21 04:32:27;;;;;;;67.95;29.90;;;0.80;99.90;;;;;;5111152;27;20204;-80
2023/01/21 04:34:53;;;;;;;62.83;27.20;;;0.80;99.90;;;;;;5097828;27;20199;-80
2023/01/21 04:37:18;;;;;;;60.42;29.85;;;0.80;99.90;;;;;;5113235;27;20195;-81
2023/01/21 04:39:44;;;;;;;66.70;30.77;;;0.80;99.90;;;;;;5115088;27;20608;-79
2023/01/21 04:42:10;;;;;;;63.20;28.40;;;0.80;99.90;;;;;;5112244;27;22819;-79
2023/01/21 04:44:35;;;;;;;63.42;28.77;;;0.90;99.90;;;;;;5110400;27;20244;-81
2023/01/21 04:47:01;;;;;;;63.97;29.67;;;0.80;99.90;;;;;;5111432;27;20193;-81
2023/01/21 04:49:27;;;;;;;68.93;30.52;;;0.90;99.90;;;;;;5112963;27;20196;-82
2023/01/21 04:51:53;;;;;;;61.78;29.85;;;0.80;99.90;;;;;;5108092;27;20212;-79
2023/01/21 04:54:18;;;;;;;64.00;27.10;;;0.80;99.90;;;;;;5112808;27;20260;-81
2023/01/21 04:56:44;;;;;;;63.63;27.73;;;0.80;99.90;;;;;;5095805;27;20223;-80
2023/01/21 04:59:10;;;;;;;61.63;28.35;;;0.80;99.90;;;;;;5109290;27;20228;-80
2023/01/21 05:01:36;;;;;;;66.28;30.90;;;0.90;99.90;;;;;;5107260;27;20197;-81
2023/01/21 05:04:02;;;;;;;65.70;29.02;;;0.90;99.90;;;;;;5115189;27;20544;-81
2023/01/21 05:06:28;;;;;;;66.90;32.08;;;0.90;99.90;;;;;;5108321;27;20189;-79
2023/01/21 05:08:53;;;;;;;68.43;30.00;;;1.00;99.90;;;;;;5112630;27;21263;-79
2023/01/21 05:11:19;;;;;;;67.72;30.88;;;0.90;99.90;;;;;;5098693;27;20707;-79
2023/01/21 05:13:45;;;;;;;77.25;31.10;;;0.90;99.90;;;;;;5113349;27;20184;-80
2023/01/21 05:16:13;;;;;;;69.68;30.10;;;1.00;99.90;;;;;;5111202;27;20304;-80
2023/01/21 05:18:44;;;;;;;64.32;31.17;;;1.00;99.90;;;;;;5110435;27;20173;-82
2023/01/21 05:21:10;;;;;;;68.30;31.15;;;1.00;99.90;;;;;;5110968;27;20228;-82
2023/01/21 05:23:36;;;;;;;62.72;28.55;;;1.00;99.90;;;;;;5112829;27;20185;-80
2023/01/21 05:26:02;;;;;;;61.35;29.52;;;1.00;99.90;;;;;;5108415;27;20628;-80
2023/01/21 05:28:28;;;;;;;71.22;31.55;;;1.00;99.90;;;;;;5111850;27;20185;-79
2023/01/21 05:30:54;;;;;;;71.45;30.65;;;0.90;99.90;;;;;;5104773;27;20192;-77
2023/01/21 05:33:24;;;;;;;70.88;30.08;;;0.90;99.90;;;;;;5107547;27;20511;-79
2023/01/21 05:35:50;;;;;;;63.60;28.88;;;0.90;99.90;;;;;;5110982;27;20225;-78
2023/01/21 05:38:16;;;;;;;63.10;29.90;;;0.90;99.90;;;;;;5110216;27;20679;-80
2023/01/21 05:40:42;;;;;;;71.88;31.98;;;0.90;99.90;;;;;;5109460;27;20188;-81
2023/01/21 05:43:08;;;;;;;61.08;28.17;;;0.90;99.90;;;;;;5108770;27;20227;-78
2023/01/21 05:45:33;;;;;;;65.88;30.77;;;0.80;99.90;;;;;;5111310;27;20226;-77
2023/01/21 05:47:59;;;;;;;68.57;30.77;;;0.90;99.90;;;;;;5110329;27;20402;-84
2023/01/21 05:50:25;;;;;;;71.88;30.17;;;0.80;99.90;;;;;;5108151;27;20189;-84
2023/01/21 05:52:51;;;;;;;67.70;30.15;;;0.80;99.90;;;;;;5105362;27;20692;-79
2023/01/21 05:55:16;;;;;;;63.38;29.88;;;0.80;99.90;;;;;;5111038;27;20244;-82
2023/01/21 05:57:42;;;;;;;64.28;30.02;;;0.80;99.90;;;;;;5108259;27;20228;-80
2023/01/21 06:00:09;;;;;;;67.10;30.25;;;0.80;99.90;;;;;;5106637;27;20216;-83
2023/01/21 06:02:34;;;;;;;64.30;29.98;;;0.70;99.90;;;;;;5107595;27;20613;-78
2023/01/21 06:05:00;;;;;;;78.22;40.17;;;0.70;99.90;;;;;;5112284;27;20434;-77
2023/01/21 06:07:26;;;;;;;72.65;32.22;;;0.80;99.90;;;;;;5110332;27;20234;-78
2023/01/21 06:09:51;;;;;;;65.97;31.30;;;0.70;99.90;;;;;;5111804;27;20582;-78
2023/01/21 06:12:17;;;;;;;68.03;30.30;;;0.70;99.90;;;;;;5109529;27;20243;-80
2023/01/21 06:14:43;;;;;;;65.78;31.58;;;0.60;99.90;;;;;;5109104;27;20593;-81
2023/01/21 06:17:09;;;;;;;66.88;31.05;;;0.60;99.90;;;;;;5106855;27;20640;-81
2023/01/21 06:19:35;;;;;;;63.00;30.00;;;0.60;99.90;;;;;;5108876;27;20278;-80
2023/01/21 06:22:00;;;;;;;64.25;30.33;;;0.60;99.90;;;;;;5111713;27;20193;-79
2023/01/21 06:24:26;;;;;;;70.93;30.75;;;0.50;99.90;;;;;;5109480;27;21132;-82
2023/01/21 06:26:52;;;;;;;67.35;31.45;;;0.50;99.90;;;;;;5078419;27;20196;-82
2023/01/21 06:29:18;;;;;;;66.32;29.73;;;0.50;99.90;;;;;;5110908;27;20184;-79
2023/01/21 06:31:43;;;;;;;65.63;30.38;;;0.50;99.90;;;;;;5111223;28;20208;-85
2023/01/21 06:34:11;;;;;;;71.50;30.38;;;0.50;99.90;;;;;;5110691;27;21420;-82
2023/01/21 06:36:39;;;;;;;61.63;29.08;;;0.50;99.90;;;;;;5108182;28;20180;-81
2023/01/21 06:39:05;;;;;;;71.40;29.50;;;0.50;99.90;;;;;;5110583;27;20242;-80
2023/01/21 06:41:31;;;;;;;68.20;28.45;;;0.40;99.90;;;;;;5109257;28;20201;-82
2023/01/21 06:43:56;;;;;;;70.10;31.20;;;0.40;99.90;;;;;;5110854;27;20770;-80
2023/01/21 06:46:22;;;;;;;62.35;28.10;;;0.50;99.90;;;;;;5108038;28;20275;-80
2023/01/21 06:48:48;;;;;;;63.13;29.48;;;0.40;99.90;;;;;;5110241;27;20182;-79
2023/01/21 06:51:14;;;;;;;64.97;28.45;;;0.40;99.90;;;;;;5108472;28;20216;-80
2023/01/21 06:53:39;;;;;;;68.32;29.95;;;0.40;99.90;;;;;;5111720;28;20269;-78
2023/01/21 06:56:05;;;;;;;64.30;28.75;;;0.40;99.90;;;;;;5111853;27;20729;-80
2023/01/21 06:58:31;;;;;;;73.03;32.40;;;0.40;99.90;;;;;;5111837;28;20239;-80
2023/01/21 07:00:57;;;;;;;63.90;29.52;;;0.30;99.90;;;;;;5109404;28;20621;-80
2023/01/21 07:03:22;;;;;;;69.43;30.50;;;0.30;99.90;;;;;;5114115;28;20197;-80
2023/01/21 07:05:48;;;;;;;74.28;32.40;;;0.30;99.90;;;;;;5111985;28;20264;-79
2023/01/21 07:08:14;;;;;;;71.82;30.15;;;0.30;99.90;;;;;;5112093;27;20667;-83
2023/01/21 07:10:39;;;;;;;69.03;30.75;;;0.30;99.90;;;;;;5110329;27;20279;-78
2023/01/21 07:13:05;;;;;;;72.18;30.90;;;0.30;99.90;;;;;;5108852;27;20239;-79
2023/01/21 07:15:31;;;;;;;68.57;30.60;;;0.30;99.90;;;;;;5110733;27;20666;-81
2023/01/21 07:17:57;;;;;;;73.93;32.47;;;0.20;99.90;;;;;;5114910;27;20204;-86
2023/01/21 07:20:23;;;;;;;67.32;30.95;;;0.30;99.90;;;;;;5099376;27;20197;-82
2023/01/21 07:22:48;;;;;;;70.38;32.47;;;0.30;99.90;;;;;;5110217;27;20193;-76
2023/01/21 07:25:14;;;;;;;71.47;31.85;;;0.20;99.90;;;;;;5113277;27;20192;-79
2023/01/21 07:27:40;;;;;;;64.90;31.10;;;0.20;99.90;;;;;;5103400;27;20193;-80
2023/01/21 07:30:07;;;;;;;64.68;30.40;;;0.20;99.90;;;;;;5096754;27;20196;-75
2023/01/21 07:32:32;;;;;;;63.15;28.92;;;0.20;99.90;;;;;;5114302;27;20212;-79
2023/01/21 07:34:58;;;;;;;67.93;30.20;;;0.20;99.90;;;;;;5112559;27;20203;-77
2023/01/21 07:37:24;;;;;;;63.75;27.73;;;0.20;99.90;;;;;;5112132;27;20188;-79
2023/01/21 07:39:49;;;;;;;70.93;30.15;;;0.10;99.90;;;;;;5113113;27;20184;-76
2023/01/21 07:42:15;;;;;;;68.28;30.50;;;0.20;99.90;;;;;;5111101;27;21131;-80
2023/01/21 07:44:41;;;;;;;69.53;29.60;;;0.20;99.90;;;;;;5112809;27;20185;-78
2023/01/21 07:47:07;;;;;;;68.55;30.05;;;0.20;99.90;;;;;;5108855;27;20632;-79
2023/01/21 07:49:33;;;;;;;66.78;30.92;;;0.20;99.90;;;;;;5110519;27;20512;-81
2023/01/21 07:51:59;;;;;;;70.18;32.17;;;0.20;99.90;;;;;;5110357;27;20257;-82
2023/01/21 07:54:24;;;;;;;70.90;32.55;;;0.20;99.90;;;;;;5114452;27;20577;-77
2023/01/21 07:56:50;;;;;;;69.53;30.90;;;0.20;99.90;;;;;;5112555;27;20185;-81
2023/01/21 07:59:16;;;;;;;69.28;31.50;;;0.20;99.90;;;;;;5114280;27;20253;-85
2023/01/21 08:01:42;;;;;;;64.35;29.17;;;0.30;99.90;;;;;;5095038;27;20201;-80
2023/01/21 08:04:08;;;;;;;69.75;31.85;;;0.30;99.90;;;;;;5114100;27;20192;-78
2023/01/21 08:06:36;;;;;;;68.88;30.13;;;0.30;99.90;;;;;;5098798;27;20201;-78
2023/01/21 08:09:03;;;;;;;67.90;29.48;;;0.30;99.90;;;;;;5111880;27;20264;-78
2023/01/21 08:11:28;;;;;;;69.85;30.13;;;0.30;99.90;;;;;;5109462;27;20200;-75
2023/01/21 08:13:54;;;;;;;69.45;31.58;;;0.30;99.90;;;;;;5109293;27;20197;-76
2023/01/21 08:16:20;;;;;;;73.07;30.98;;;0.40;99.90;;;;;;5112081;27;20188;-75
2023/01/21 08:18:46;;;;;;;66.90;30.70;;;0.40;99.90;;;;;;5113519;27;20212;-78
2023/01/21 08:21:11;;;;;;;71.82;32.22;;;0.40;99.90;;;;;;5108939;27;20188;-81
2023/01/21 08:23:38;;;;;;;74.00;33.22;;;0.50;99.90;;;;;;5117894;27;20667;-77
2023/01/21 08:26:13;;;;;;;63.70;29.77;;;0.50;99.90;;;;;;5130182;27;20195;-77
2023/01/21 08:28:40;;;;;;;69.85;30.95;;;0.50;99.90;;;;;;5124202;27;20195;-78
2023/01/21 08:31:12;;;;;;;78.78;32.35;;;0.50;99.90;;;;;;5126995;27;20282;-76
2023/01/21 08:33:39;;;;;;;75.55;33.47;;;0.60;99.90;;;;;;5128965;27;20177;-78
2023/01/21 08:36:07;;;;;;;69.70;31.50;;;0.60;99.90;;;;;;5124996;27;20184;-80
2023/01/21 08:38:34;;;;;;;73.57;31.70;;;0.70;99.90;;;;;;5110422;27;20196;-80
2023/01/21 08:41:00;;;;;;;75.65;33.03;;;0.90;99.90;;;;;;5110044;27;20291;-78
2023/01/21 08:43:26;;;;;;;74.25;32.65;;;1.40;99.90;;;;;;5112973;27;20195;-82
2023/01/21 08:45:55;;;;;;;68.82;31.73;;;2.00;99.90;;;;;;5111681;27;20208;-78
2023/01/21 08:48:21;;;;;;;76.20;33.50;;;2.80;99.90;;;;;;5112243;27;20189;-80
2023/01/21 08:50:46;;;;;;;75.05;33.97;;;3.60;99.90;;;;;;5108622;27;20188;-79
2023/01/21 08:53:12;;;;;;;70.03;31.23;;;4.40;99.90;;;;;;5113777;27;20261;-77
2023/01/21 08:55:38;;;;;;;74.63;33.75;;;4.90;99.90;;;;;;5115167;27;20182;-77
2023/01/21 08:58:04;;;;;;;64.82;32.90;;;5.30;99.90;;;;;;5111221;27;20636;-77
2023/01/21 09:00:29;;;;;;;66.57;32.83;;;5.80;99.90;;;;;;5108268;27;20200;-80
2023/01/21 09:02:57;;;;;;;63.67;31.85;;;6.30;99.90;;;;;;5120403;27;20382;-77
2023/01/21 09:05:23;;;;;;;60.47;31.95;;;6.80;99.90;;;;;;5116630;27;20188;-81
2023/01/21 09:07:48;;;;;;;59.42;31.58;;;7.30;99.90;;;;;;5109318;27;20180;-78
2023/01/21 09:13:03;;;;;;;60.65;30.63;;;7.30;99.90;;;;;;5111902;27;20207;-79
2023/01/21 09:15:29;;;;;;;53.95;28.75;;;6.90;99.90;;;;;;5110825;27;20196;-80
2023/01/21 09:17:55;;;;;;;50.22;27.70;;;6.40;99.90;;;;;;5110670;27;20572;-79
2023/01/21 09:20:20;;;;;;;52.72;28.80;;;5.90;99.90;;;;;;5109930;27;20747;-81
2023/01/21 09:22:46;;;;;;;52.78;28.23;;;5.40;99.90;;;;;;5112496;27;20197;-79
2023/01/21 09:25:12;;;;;;;51.03;28.95;;;5.00;99.90;;;;;;5112367;27;20197;-80
2023/01/21 09:27:37;;;;;;;51.90;27.42;;;4.80;99.90;;;;;;5110000;27;20323;-79
2023/01/21 09:30:04;;;;;;;48.50;26.55;;;4.50;99.90;;;;;;5109952;27;20629;-79
2023/01/21 09:32:29;;;;;;;53.45;26.98;;;4.20;99.90;;;;;;5111023;27;20228;-80
2023/01/21 09:34:55;;;;;;;49.42;26.00;;;4.00;99.90;;;;;;5112599;27;21131;-78
2023/01/21 09:37:21;;;;;;;48.88;25.27;;;3.90;99.90;;;;;;5115736;27;20738;-81
2023/01/21 09:39:46;;;;;;;47.53;25.45;;;3.90;99.90;;;;;;5114073;27;20284;-75
2023/01/21 09:42:19;;;;;;;49.03;25.48;;;4.10;99.90;;;;;;5112490;27;20239;-76
2023/01/21 09:44:49;;;;;;;49.15;25.88;;;4.20;99.90;;;;;;5112164;27;20178;-77
2023/01/21 09:47:23;;;;;;;44.30;24.08;;;4.30;99.90;;;;;;5113523;27;20176;-76
2023/01/21 09:49:54;;;;;;;47.55;25.05;;;4.70;99.90;;;;;;5111562;27;20295;-75
2023/01/21 09:52:40;;;;;;;47.78;23.73;;;5.10;99.90;;;;;;5111077;27;20758;-76
2023/01/21 09:55:14;;;;;;;43.13;23.65;;;5.60;99.90;;;;;;5106735;27;20876;-77
2023/01/21 09:57:54;;;;;;;42.95;23.73;;;6.10;99.90;;;;;;5110179;27;20796;-76
2023/01/21 10:00:47;;;;;;;44.40;24.83;;;6.60;99.90;;;;;;5109032;27;20185;-79
2023/01/21 10:03:53;;;;;;;45.63;24.25;;;7.10;99.90;;;;;;5129459;27;20180;-78
2023/01/21 10:06:51;;;;;;;39.55;23.83;;;7.60;99.90;;;;;;5112675;27;20188;-79
2023/01/21 10:09:28;;;;;;;41.92;23.27;;;7.80;99.90;;;;;;5099485;27;20189;-77
2023/01/21 10:12:15;;;;;;;40.97;23.23;;;7.90;99.90;;;;;;5112627;27;20277;-81
2023/01/21 10:14:46;;;;;;;39.97;23.25;;;7.90;99.90;;;;;;5111458;27;20176;-79
2023/01/21 10:17:15;;;;;;;37.78;23.17;;;8.10;99.90;;;;;;5108178;27;20173;-84
2023/01/21 10:19:51;;;;;;;37.72;22.27;;;8.20;99.90;;;;;;5111754;27;20180;-81
2023/01/21 10:22:22;;;;;;;38.53;22.38;;;8.50;99.90;;;;;;5113325;27;20740;-82
2023/01/21 10:24:56;;;;;;;36.13;21.73;;;8.60;99.90;;;;;;5113605;27;20181;-81
2023/01/21 10:27:23;;;;;;;36.50;22.58;;;8.70;99.90;;;;;;5110874;27;20229;-83
2023/01/21 10:29:54;;;;;;;37.85;22.02;;;8.80;99.90;;;;;;5110984;27;20318;-77
2023/01/21 10:32:26;;;;;;;38.42;21.85;;;8.90;99.90;;;;;;5094157;28;20629;-79
2023/01/21 10:34:54;;;;;;;35.70;21.88;;;9.00;99.90;;;;;;5113054;28;21111;-79
2023/01/21 10:37:46;;;;;;;37.97;22.90;;;9.10;99.90;;;;;;5112115;28;20169;-78
2023/01/21 10:40:42;;;;;;;36.35;21.80;;;9.20;99.90;;;;;;5108570;28;20183;-77
2023/01/21 10:43:14;;;;;;;32.83;20.58;;;9.20;99.90;;;;;;5112518;27;20690;-81
2023/01/21 10:45:56;;;;;;;31.60;20.08;;;9.20;99.90;;;;;;5097566;28;20255;-76
2023/01/21 10:48:27;;;;;;;32.67;19.45;;;9.30;99.90;;;;;;5114165;27;20200;-77
2023/01/21 10:51:05;;;;;;;29.92;20.20;;;9.30;99.90;;;;;;5112699;27;20745;-78
2023/01/21 10:54:00;;;;;;;32.65;19.73;;;9.30;99.90;;;;;;5115024;27;20181;-79
2023/01/21 10:56:33;;;;;;;29.23;19.17;;;9.30;99.90;;;;;;5112691;27;20164;-77
2023/01/21 10:59:09;;;;;;;28.08;18.85;;;9.30;99.90;;;;;;5114409;27;20266;-78
2023/01/21 11:01:39;;;;;;;28.50;17.90;;;9.30;99.90;;;;;;5111377;27;20184;-77
2023/01/21 11:04:14;;;;;;;27.92;18.70;;;9.40;99.90;;;;;;5116158;27;20259;-80
2023/01/21 11:06:39;;;;;;;29.15;18.40;;;9.30;99.90;;;;;;5112430;27;20167;-79
2023/01/21 11:09:10;;;;;;;27.35;18.45;;;9.40;99.90;;;;;;5112337;27;20318;-80
2023/01/21 11:11:39;;;;;;;28.08;17.17;;;9.40;99.90;;;;;;5111780;27;20205;-76
2023/01/21 11:14:04;;;;;;;25.13;16.80;;;9.50;99.90;;;;;;5113744;27;20181;-78
2023/01/21 11:17:00;;;;;;;22.30;16.08;;;9.70;99.90;;;;;;5112058;27;20193;-77
2023/01/21 11:19:29;;;;;;;24.42;16.05;;;9.80;99.90;;;;;;5097044;27;20217;-81
2023/01/21 11:22:16;;;;;;;28.13;16.73;;;9.90;99.90;;;;;;5111987;27;20212;-76
2023/01/21 11:24:49;;;;;;;23.42;15.60;;;9.80;99.90;;;;;;5113220;27;20173;-77
2023/01/21 11:27:29;;;;;;;23.13;15.48;;;9.90;99.90;;;;;;5112256;27;20288;-81
2023/01/21 11:29:55;;;;;;;22.08;14.73;;;9.90;99.90;;;;;;5112667;27;20182;-80
2023/01/21 11:32:22;;;;;;;20.80;13.63;;;10.00;99.90;;;;;;5111405;27;20212;-79
2023/01/21 11:34:50;;;;;;;17.25;12.27;;;10.10;99.90;;;;;;5115423;27;20632;-78
2023/01/21 11:37:21;;;;;;;19.02;12.85;;;10.10;99.90;;;;;;5112003;27;20192;-80
2023/01/21 11:39:59;;;;;;;22.65;13.35;;;10.20;99.90;;;;;;5112360;27;20682;-82
2023/01/21 11:42:25;;;;;;;21.17;13.52;;;10.10;99.90;;;;;;5111507;27;20190;-80
2023/01/21 11:45:00;;;;;;;21.75;13.75;;;10.10;99.90;;;;;;5113800;27;20561;-75
2023/01/21 11:47:48;;;;;;;19.83;13.20;;;10.10;99.90;;;;;;5112361;27;20176;-77
2023/01/21 11:50:37;;;;;;;16.48;11.70;;;10.10;99.90;;;;;;5113065;27;20216;-82
2023/01/21 11:53:10;;;;;;;16.75;11.55;;;10.10;99.90;;;;;;5097480;27;20311;-77
2023/01/21 11:56:02;;;;;;;19.15;11.73;;;10.10;99.90;;;;;;5113825;27;20612;-80
2023/01/21 11:58:35;;;;;;;17.30;11.70;;;10.20;99.90;;;;;;5110599;27;20334;-82
2023/01/21 12:01:06;;;;;;;17.00;11.35;;;10.20;99.90;;;;;;5109641;28;20184;-80
2023/01/21 12:03:41;;;;;;;15.40;10.30;;;10.20;99.90;;;;;;5114813;27;20263;-83
2023/01/21 12:06:07;;;;;;;15.95;10.85;;;10.20;99.90;;;;;;5109593;27;20231;-77
2023/01/21 12:08:37;;;;;;;17.45;10.88;;;10.30;99.90;;;;;;5110217;28;20195;-81
2023/01/21 12:11:05;;;;;;;15.40;10.27;;;10.30;99.90;;;;;;5111538;28;20219;-80
2023/01/21 12:14:06;;;;;;;15.07;9.40;;;10.30;99.90;;;;;;5113363;27;20199;-82
2023/01/21 12:16:36;;;;;;;14.40;9.38;;;10.30;99.70;;;;;;5112136;27;20179;-79
2023/01/21 12:19:28;;;;;;;14.55;9.80;;;10.30;98.80;;;;;;5111827;28;20200;-79
2023/01/21 12:21:54;;;;;;;12.27;8.98;;;10.20;98.60;;;;;;5109460;28;20192;-81
2023/01/21 12:24:29;;;;;;;11.60;8.07;;;10.20;99.00;;;;;;5112788;28;20184;-78
2023/01/21 12:27:16;;;;;;;12.38;8.40;;;10.10;98.00;;;;;;5110973;28;20271;-78
2023/01/21 12:30:02;;;;;;;11.88;8.30;;;10.10;97.70;;;;;;5113642;28;20222;-81
2023/01/21 12:33:00;;;;;;;10.13;7.35;;;10.10;96.70;;;;;;5108107;28;20244;-80
2023/01/21 12:35:33;;;;;;;8.80;5.75;;;10.10;96.60;;;;;;5110218;28;20192;-82
2023/01/21 12:38:05;;;;;;;7.10;5.55;;;10.10;96.40;;;;;;5108421;28;20594;-81
2023/01/21 12:40:39;;;;;;;9.15;6.40;;;10.00;96.30;;;;;;5110161;28;20580;-79
2023/01/21 12:43:11;;;;;;;7.32;5.03;;;10.00;96.00;;;;;;5110571;28;20263;-77
2023/01/21 12:45:46;;;;;;;7.03;5.50;;;9.90;96.70;;;;;;5125238;28;20622;-77
2023/01/21 12:48:17;;;;;;;8.98;6.32;;;9.90;95.80;;;;;;5113524;28;20217;-76
2023/01/21 12:50:58;;;;;;;7.50;5.60;;;9.80;95.90;;;;;;5128804;28;20709;-76
2023/01/21 12:53:42;;;;;;;8.52;6.30;;;9.80;95.80;;;;;;5129742;28;20283;-77
2023/01/21 12:56:14;;;;;;;9.35;6.55;;;9.70;96.10;;;;;;5113592;28;20187;-77
2023/01/21 12:58:54;;;;;;;8.68;6.57;;;9.80;95.90;;;;;;5074513;28;1104509;-77